Crystal City, Canada
Current Conditions -  °F | °C
As of 8:35 PM on Wednesday 22 Oct 2014 (Local Time) from K06D Reporting Station
Overcast Overcast  
Wind Chill: 55°   Ceiling: 4000
Heat Index: 55°   Visibility: 10mi
Dew Point: 45°   Wind: 13mph
Humidity: 67%   Direction: 250°WSW
Pressure: 29.79"   Gusts: NA
Location:  49.13°N, 98.95°W
Report Text: K06D 230135Z AUTO 25011KT 10SM OVC040 13/07 A2979 RMK AO2
Loading
Personal Weather Stations






























Interactive Weather Map
Tropical Storm Tracking
New forecast layout! Learn more

10-Day Weather Forecast

Advertisements
Track Severe Weather on mobile